Time;durP1;ratioP1;P1;durP2;ratioP2;P2;SDS_P1;SDS_P2;PMS_P1;PMS_P2;Temp;Humidity;BMP_temperature;BMP_pressure;BME280_temperature;BME280_humidity;BME280_pressure;Samples;Min_cycle;Max_cycle;Signal;HPM_P1;HPM_P2
2023/09/25 00:00:33;;;;;;;5.05;2.28;;;;;;;11.89;100.00;102342.91;5005082;28;20193;-50
2023/09/25 00:03:00;;;;;;;2.58;2.38;;;;;;;11.87;100.00;102337.53;5002790;28;20694;-48
2023/09/25 00:05:27;;;;;;;4.57;2.63;;;;;;;11.94;100.00;102341.91;5004716;28;20222;-48
2023/09/25 00:07:53;;;;;;;6.40;2.60;;;;;;;11.86;100.00;102334.88;5004865;28;20339;-50
2023/09/25 00:10:19;;;;;;;6.28;2.78;;;;;;;11.91;100.00;102338.38;5003244;28;20208;-47
2023/09/25 00:12:44;;;;;;;3.88;2.58;;;;;;;11.86;100.00;102335.75;5002779;28;20209;-48
2023/09/25 00:15:10;;;;;;;2.40;2.20;;;;;;;11.90;100.00;102333.94;5001572;28;20185;-50
2023/09/25 00:17:36;;;;;;;3.80;2.47;;;;;;;11.88;100.00;102338.44;5003437;28;20197;-49
2023/09/25 00:20:04;;;;;;;5.28;2.55;;;;;;;11.88;100.00;102333.09;5001169;28;20189;-47
2023/09/25 00:22:30;;;;;;;3.70;2.13;;;;;;;11.87;100.00;102334.84;5004370;28;20591;-47
2023/09/25 00:24:57;;;;;;;4.18;2.50;;;;;;;11.88;100.00;102338.44;4999451;28;20173;-47
2023/09/25 00:27:23;;;;;;;2.97;2.47;;;;;;;11.85;100.00;102338.47;4999416;28;20551;-47
2023/09/25 00:29:48;;;;;;;2.90;2.25;;;;;;;11.80;100.00;102337.69;5001112;28;20768;-47
2023/09/25 00:32:14;;;;;;;4.78;2.33;;;;;;;11.76;100.00;102334.16;5006780;28;20215;-47
2023/09/25 00:34:40;;;;;;;2.78;2.08;;;;;;;11.81;100.00;102326.91;5001434;28;20193;-47
2023/09/25 00:37:05;;;;;;;2.53;2.30;;;;;;;11.84;100.00;102323.28;4998538;28;20287;-47
2023/09/25 00:39:31;;;;;;;2.53;2.30;;;;;;;11.80;100.00;102316.19;4997704;28;20188;-47
2023/09/25 00:41:59;;;;;;;2.88;2.13;;;;;;;11.77;100.00;102324.31;5004883;28;20204;-49
2023/09/25 00:44:24;;;;;;;4.20;2.00;;;;;;;11.75;100.00;102321.66;4996733;28;20217;-47
2023/09/25 00:46:50;;;;;;;3.40;2.10;;;;;;;11.73;100.00;102320.78;5001753;28;20196;-46
2023/09/25 00:49:16;;;;;;;2.85;1.90;;;;;;;11.79;100.00;102311.75;4999051;28;20247;-47
2023/09/25 00:51:44;;;;;;;1.70;1.60;;;;;;;11.82;100.00;102323.28;4998042;28;20255;-47
2023/09/25 00:54:15;;;;;;;1.92;1.75;;;;;;;11.87;100.00;102328.56;4995485;28;20205;-48
2023/09/25 00:56:40;;;;;;;3.80;2.00;;;;;;;11.86;100.00;102316.94;4999659;28;20180;-48
2023/09/25 00:59:06;;;;;;;3.05;1.92;;;;;;;11.85;100.00;102323.25;4998789;28;20189;-44
2023/09/25 01:01:33;;;;;;;4.60;1.90;;;;;;;11.80;100.00;102322.44;4999305;28;20201;-47
2023/09/25 01:03:59;;;;;;;4.40;2.30;;;;;;;11.78;100.00;102324.25;4979877;28;20220;-46
2023/09/25 01:06:25;;;;;;;4.15;2.00;;;;;;;11.74;100.00;102314.50;5001496;28;20223;-46
2023/09/25 01:08:51;;;;;;;2.53;2.00;;;;;;;11.69;100.00;102324.44;4999695;28;20655;-46
2023/09/25 01:11:16;;;;;;;2.97;1.70;;;;;;;11.66;100.00;102322.72;5003511;28;20213;-47
2023/09/25 01:13:42;;;;;;;4.35;2.25;;;;;;;11.64;100.00;102320.97;5003848;28;20235;-47
2023/09/25 01:16:07;;;;;;;4.70;2.00;;;;;;;11.65;100.00;102322.72;5005041;28;20184;-46
2023/09/25 01:18:33;;;;;;;2.22;1.80;;;;;;;11.57;100.00;102319.28;5001527;28;20195;-47
2023/09/25 01:21:02;;;;;;;3.13;2.03;;;;;;;11.50;100.00;102319.44;5001522;28;20197;-46
2023/09/25 01:23:27;;;;;;;4.40;2.13;;;;;;;11.52;100.00;102327.44;5002739;28;20682;-48
2023/09/25 01:25:53;;;;;;;2.08;1.90;;;;;;;11.44;100.00;102330.28;5005319;28;20308;-47
2023/09/25 01:28:19;;;;;;;3.95;2.10;;;;;;;11.41;100.00;102322.25;5001969;28;20273;-47
2023/09/25 01:30:44;;;;;;;3.63;1.80;;;;;;;11.45;100.00;102315.06;5000620;28;20196;-47
2023/09/25 01:33:11;;;;;;;4.13;2.08;;;;;;;11.39;100.00;102318.75;5010330;28;20207;-47
2023/09/25 01:35:36;;;;;;;4.05;2.20;;;;;;;11.39;100.00;102315.16;5003771;28;20196;-46
2023/09/25 01:38:04;;;;;;;2.70;1.85;;;;;;;11.44;100.00;102314.16;5003606;28;20184;-45
2023/09/25 01:40:31;;;;;;;2.00;1.80;;;;;;;11.36;100.00;102324.16;5004788;28;20209;-48
2023/09/25 01:42:56;;;;;;;5.90;2.22;;;;;;;11.38;100.00;102325.00;5003626;28;20224;-47
2023/09/25 01:45:22;;;;;;;4.00;2.40;;;;;;;11.44;100.00;102313.28;4999626;28;20184;-47
2023/09/25 01:47:51;;;;;;;3.58;2.22;;;;;;;11.43;100.00;102328.47;5007093;28;20184;-49
2023/09/25 01:50:27;;;;;;;3.45;2.10;;;;;;;11.38;100.00;102316.97;5003247;28;20173;-49
2023/09/25 01:52:58;;;;;;;2.60;2.20;;;;;;;11.48;100.00;102325.75;5006409;28;20204;-46
2023/09/25 01:55:29;;;;;;;2.42;2.25;;;;;;;11.48;100.00;102318.56;5008902;28;20730;-48
2023/09/25 01:57:54;;;;;;;3.40;2.40;;;;;;;11.47;100.00;102332.00;5003242;28;20184;-48
2023/09/25 02:00:20;;;;;;;3.97;2.40;;;;;;;11.46;100.00;102317.72;5001981;28;20176;-48
2023/09/25 02:02:46;;;;;;;4.40;2.55;;;;;;;11.43;100.00;102316.88;5006540;28;20212;-46
2023/09/25 02:05:12;;;;;;;3.45;2.40;;;;;;;11.36;100.00;102320.59;5002673;28;20252;-47
2023/09/25 02:07:38;;;;;;;3.55;2.53;;;;;;;11.33;100.00;102324.22;5000496;28;20279;-46
2023/09/25 02:10:03;;;;;;;6.00;2.50;;;;;;;11.35;100.00;102311.66;5008695;28;20275;-47
2023/09/25 02:12:29;;;;;;;3.28;2.05;;;;;;;11.34;100.00;102318.78;5002400;28;20797;-48
2023/09/25 02:14:58;;;;;;;6.55;2.88;;;;;;;11.35;100.00;102306.28;5004126;28;20185;-49
2023/09/25 02:17:23;;;;;;;2.40;2.20;;;;;;;11.30;100.00;102310.84;5003714;28;20184;-49
2023/09/25 02:19:50;;;;;;;2.92;2.20;;;;;;;11.31;100.00;102315.31;5007941;28;20181;-49
2023/09/25 02:22:16;;;;;;;2.50;2.30;;;;;;;11.25;100.00;102318.09;5001535;28;20317;-47
2023/09/25 02:24:42;;;;;;;4.97;2.78;;;;;;;11.26;100.00;102317.16;5005335;28;20185;-46
2023/09/25 02:27:07;;;;;;;3.08;2.67;;;;;;;11.23;100.00;102315.41;5001704;28;20207;-48
2023/09/25 02:29:33;;;;;;;3.28;2.25;;;;;;;11.25;100.00;102305.56;5004145;28;20536;-47
2023/09/25 02:31:58;;;;;;;2.95;2.35;;;;;;;11.22;100.00;102307.41;5017863;28;20229;-45
2023/09/25 02:34:24;;;;;;;4.38;2.30;;;;;;;11.26;100.00;102304.66;5008330;28;20247;-48
2023/09/25 02:36:50;;;;;;;3.03;2.47;;;;;;;11.20;100.00;102299.38;5006291;28;20637;-49
2023/09/25 02:39:15;;;;;;;3.70;2.60;;;;;;;11.19;100.00;102302.09;4999520;28;20197;-47
2023/09/25 02:41:41;;;;;;;3.58;2.40;;;;;;;11.19;100.00;102307.44;5000197;28;20216;-47
2023/09/25 02:44:06;;;;;;;5.65;2.65;;;;;;;11.19;100.00;102305.66;5003250;28;20519;-49
2023/09/25 02:46:32;;;;;;;2.42;2.25;;;;;;;11.17;100.00;102306.59;5006179;28;20185;-47
2023/09/25 02:48:58;;;;;;;3.72;2.40;;;;;;;11.17;100.00;102312.84;5001452;28;20186;-48
2023/09/25 02:51:25;;;;;;;4.60;2.55;;;;;;;11.16;100.00;102299.47;5007231;28;20690;-49
2023/09/25 02:53:54;;;;;;;2.85;2.40;;;;;;;11.12;100.00;102309.34;5007469;28;20177;-47
2023/09/25 02:56:20;;;;;;;2.65;2.45;;;;;;;11.11;100.00;102311.16;5007664;28;20202;-46
2023/09/25 02:58:46;;;;;;;3.60;2.42;;;;;;;11.07;100.00;102309.44;5001573;28;20184;-46
2023/09/25 03:01:12;;;;;;;3.08;2.45;;;;;;;11.09;100.00;102307.63;5002399;28;20179;-45
2023/09/25 03:03:39;;;;;;;4.82;2.38;;;;;;;11.17;100.00;102303.91;5006940;28;20259;-48
2023/09/25 03:06:05;;;;;;;2.90;2.30;;;;;;;11.12;100.00;102323.66;5004745;28;20646;-45
2023/09/25 03:08:30;;;;;;;4.00;2.30;;;;;;;11.09;100.00;102309.41;5005814;28;20169;-46
2023/09/25 03:10:56;;;;;;;2.65;2.13;;;;;;;11.14;100.00;102312.91;5002084;28;20212;-45
2023/09/25 03:13:21;;;;;;;4.63;2.72;;;;;;;11.11;100.00;102313.84;5006612;28;20288;-46
2023/09/25 03:15:47;;;;;;;3.45;2.38;;;;;;;11.07;100.00;102313.94;5000661;28;20645;-46
2023/09/25 03:18:12;;;;;;;6.05;2.75;;;;;;;11.08;100.00;102316.56;5003459;28;20628;-46
2023/09/25 03:20:41;;;;;;;3.60;2.28;;;;;;;11.07;100.00;102305.88;5006088;28;20187;-45
2023/09/25 03:23:06;;;;;;;2.88;2.28;;;;;;;11.04;100.00;102300.53;5001962;28;20676;-47
2023/09/25 03:25:35;;;;;;;3.53;2.60;;;;;;;11.03;100.00;102294.31;5001451;28;20177;-45
2023/09/25 03:28:02;;;;;;;3.08;2.60;;;;;;;10.97;100.00;102299.75;5007226;28;20262;-47
2023/09/25 03:30:28;;;;;;;3.85;2.30;;;;;;;10.98;100.00;102303.34;4999589;28;20177;-46
2023/09/25 03:32:54;;;;;;;3.25;2.30;;;;;;;11.01;100.00;102305.97;5000359;28;20596;-46
2023/09/25 03:35:21;;;;;;;3.63;2.85;;;;;;;10.97;100.00;102313.16;5010349;28;20617;-47
2023/09/25 03:37:46;;;;;;;3.40;2.70;;;;;;;10.96;100.00;102295.31;5004397;28;20177;-45
2023/09/25 03:40:13;;;;;;;3.13;2.30;;;;;;;10.93;100.00;102300.72;5005772;28;20560;-46
2023/09/25 03:42:39;;;;;;;3.38;2.72;;;;;;;10.96;100.00;102311.41;5002209;28;20204;-46
2023/09/25 03:45:05;;;;;;;6.30;2.30;;;;;;;10.96;100.00;102319.47;5004192;28;20177;-46
2023/09/25 03:47:31;;;;;;;5.45;2.40;;;;;;;10.95;100.00;102314.09;5002521;28;20239;-47
2023/09/25 03:49:56;;;;;;;2.70;2.45;;;;;;;10.93;100.00;102311.44;5004672;28;20359;-47
2023/09/25 03:52:23;;;;;;;3.20;2.35;;;;;;;10.88;100.00;102306.16;5001890;28;20197;-47
2023/09/25 03:54:48;;;;;;;2.67;2.33;;;;;;;10.91;100.00;102313.25;4999591;28;20176;-46
2023/09/25 03:57:13;;;;;;;3.17;2.88;;;;;;;10.86;100.00;102310.66;5002310;28;20186;-45
2023/09/25 03:59:39;;;;;;;4.65;2.50;;;;;;;10.87;100.00;102307.09;5002117;28;20643;-49
2023/09/25 04:02:04;;;;;;;2.35;2.20;;;;;;;10.88;100.00;102324.03;5005309;28;20222;-48
2023/09/25 04:04:30;;;;;;;3.30;2.30;;;;;;;10.88;100.00;102316.00;5001167;28;20202;-45
2023/09/25 04:06:55;;;;;;;3.30;2.55;;;;;;;10.91;100.00;102321.31;5018575;28;20242;-46
2023/09/25 04:09:21;;;;;;;2.42;2.33;;;;;;;10.90;100.00;102314.19;4999456;28;20168;-47
2023/09/25 04:11:46;;;;;;;2.95;2.53;;;;;;;10.91;100.00;102326.66;5002846;28;20205;-48
2023/09/25 04:14:12;;;;;;;3.22;2.20;;;;;;;10.88;100.00;102324.94;5001633;28;20176;-47
2023/09/25 04:16:38;;;;;;;5.65;3.05;;;;;;;10.86;100.00;102313.34;4999061;28;20172;-47
2023/09/25 04:19:04;;;;;;;3.70;2.65;;;;;;;10.93;100.00;102324.84;5000323;28;20181;-47
2023/09/25 04:21:31;;;;;;;3.10;2.50;;;;;;;10.85;100.00;102321.44;5004069;28;20247;-46
2023/09/25 04:23:57;;;;;;;3.17;2.60;;;;;;;10.86;100.00;102315.13;5000199;28;20216;-48
2023/09/25 04:26:25;;;;;;;2.60;2.40;;;;;;;10.92;100.00;102321.28;5000316;28;20181;-48
2023/09/25 04:28:51;;;;;;;6.05;3.00;;;;;;;10.87;100.00;102322.28;5001786;28;20173;-46
2023/09/25 04:31:16;;;;;;;3.53;2.55;;;;;;;10.87;100.00;102328.53;5000112;28;20200;-48
2023/09/25 04:33:41;;;;;;;4.97;2.80;;;;;;;10.82;100.00;102322.38;4998525;28;20184;-48
2023/09/25 04:36:10;;;;;;;2.88;2.47;;;;;;;10.85;100.00;102316.94;4999220;28;20235;-47
2023/09/25 04:38:36;;;;;;;4.22;3.22;;;;;;;10.81;100.00;102323.25;4999632;28;20203;-46
2023/09/25 04:41:02;;;;;;;4.18;2.63;;;;;;;10.81;100.00;102327.75;5001510;28;20280;-48
2023/09/25 04:43:27;;;;;;;2.95;2.72;;;;;;;10.82;100.00;102322.38;4998279;28;20287;-47
2023/09/25 04:45:55;;;;;;;5.45;3.00;;;;;;;10.83;100.00;102328.59;4998583;28;20290;-47
2023/09/25 04:48:21;;;;;;;5.00;2.97;;;;;;;10.78;100.00;102344.75;5000824;28;20181;-46
2023/09/25 04:50:47;;;;;;;2.67;2.47;;;;;;;10.77;100.00;102342.09;4998124;28;20174;-48
2023/09/25 04:53:14;;;;;;;4.85;3.00;;;;;;;10.76;100.00;102343.91;4999173;28;20674;-47
2023/09/25 04:55:40;;;;;;;3.50;3.17;;;;;;;10.76;100.00;102340.31;5003749;28;20250;-47
2023/09/25 04:58:05;;;;;;;4.50;3.10;;;;;;;10.77;100.00;102342.09;4997836;28;20271;-46
2023/09/25 05:00:32;;;;;;;4.78;2.90;;;;;;;10.78;100.00;102343.84;4998874;28;20176;-47
2023/09/25 05:02:58;;;;;;;4.30;3.47;;;;;;;10.72;100.00;102340.38;5001283;28;20653;-46
2023/09/25 05:05:25;;;;;;;4.75;3.30;;;;;;;10.76;100.00;102335.84;4999182;28;20254;-48
2023/09/25 05:07:51;;;;;;;5.40;3.28;;;;;;;10.86;100.00;102333.91;5000457;28;20212;-48
2023/09/25 05:10:25;;;;;;;3.63;3.20;;;;;;;10.83;100.00;102340.22;4999041;28;20275;-48
2023/09/25 05:12:51;;;;;;;4.60;3.60;;;;;;;10.95;100.00;102338.25;4995927;28;20189;-47
2023/09/25 05:15:17;;;;;;;3.22;3.03;;;;;;;10.84;100.00;102323.19;4997790;28;20627;-49
2023/09/25 05:17:44;;;;;;;3.20;2.90;;;;;;;10.81;100.00;102325.06;4999213;28;20615;-49
2023/09/25 05:20:12;;;;;;;4.45;3.10;;;;;;;10.77;100.00;102320.66;5001357;28;20271;-48
2023/09/25 05:22:38;;;;;;;5.50;3.13;;;;;;;10.76;100.00;102326.91;5003671;28;20589;-46
2023/09/25 05:25:07;;;;;;;4.65;2.78;;;;;;;10.73;100.00;102322.47;4999872;28;20571;-47
2023/09/25 05:27:36;;;;;;;3.25;2.95;;;;;;;10.76;100.00;102318.88;5001547;28;20216;-47
2023/09/25 05:30:03;;;;;;;3.00;2.70;;;;;;;10.74;100.00;102313.53;5002151;28;20650;-47
2023/09/25 05:32:29;;;;;;;4.40;3.20;;;;;;;10.76;100.00;102308.13;5001946;28;20232;-47
2023/09/25 05:34:54;;;;;;;3.63;3.00;;;;;;;10.76;100.00;102313.50;4994147;28;20584;-48
2023/09/25 05:37:20;;;;;;;4.28;2.80;;;;;;;10.80;100.00;102299.16;5000035;28;20212;-46
2023/09/25 05:39:45;;;;;;;2.88;2.67;;;;;;;10.87;100.00;102311.56;4999763;28;20256;-46
2023/09/25 05:42:12;;;;;;;3.08;2.78;;;;;;;10.88;100.00;102303.47;4998329;28;20275;-46
2023/09/25 05:44:37;;;;;;;3.67;2.80;;;;;;;10.90;100.00;102308.81;4998761;28;20213;-46
2023/09/25 05:47:03;;;;;;;3.33;2.88;;;;;;;10.93;100.00;102312.34;4998891;28;20275;-46
2023/09/25 05:49:28;;;;;;;4.70;3.17;;;;;;;10.98;100.00;102298.88;4997492;28;20198;-46
2023/09/25 05:51:54;;;;;;;4.07;2.75;;;;;;;11.02;100.00;102297.91;5003088;28;20201;-48
2023/09/25 05:54:20;;;;;;;4.45;3.10;;;;;;;11.08;100.00;102295.09;4997556;28;20181;-49
2023/09/25 05:56:47;;;;;;;5.30;2.83;;;;;;;11.26;100.00;102288.56;5003364;28;20607;-48
2023/09/25 05:59:13;;;;;;;2.70;2.50;;;;;;;11.37;100.00;102285.69;5003353;28;20268;-46
2023/09/25 06:01:39;;;;;;;4.35;2.47;;;;;;;11.41;100.00;102273.94;5000498;28;20687;-45
2023/09/25 06:04:05;;;;;;;4.68;2.72;;;;;;;11.62;100.00;102275.34;5003152;28;20236;-46
2023/09/25 06:06:31;;;;;;;3.38;2.25;;;;;;;11.65;100.00;102266.34;5001353;28;20235;-45
2023/09/25 06:08:56;;;;;;;3.45;2.55;;;;;;;11.76;100.00;102272.38;4997818;28;20176;-46
2023/09/25 06:11:22;;;;;;;5.50;2.38;;;;;;;11.78;100.00;102275.94;5002564;28;20307;-46
2023/09/25 06:13:48;;;;;;;4.63;2.40;;;;;;;11.76;100.00;102261.66;5005766;28;20189;-45
2023/09/25 06:16:14;;;;;;;6.90;2.50;;;;;;;11.75;100.00;102257.22;5001217;28;20296;-46
2023/09/25 06:18:40;;;;;;;5.60;2.20;;;;;;;11.79;100.00;102266.09;5007807;28;20181;-46
2023/09/25 06:21:08;;;;;;;4.22;2.63;;;;;;;11.82;100.00;102256.16;5003003;28;20623;-48
2023/09/25 06:23:33;;;;;;;2.75;2.30;;;;;;;11.78;100.00;102238.34;5005913;28;20255;-45
2023/09/25 06:25:59;;;;;;;2.78;2.50;;;;;;;11.94;100.00;102239.84;5004771;28;20629;-46
2023/09/25 06:28:26;;;;;;;5.65;2.28;;;;;;;11.87;100.00;102239.94;4998819;28;20196;-46
2023/09/25 06:30:52;;;;;;;2.85;2.58;;;;;;;11.91;100.00;102229.13;5002025;28;20204;-46
2023/09/25 06:33:17;;;;;;;9.02;2.38;;;;;;;11.89;100.00;102228.28;4999699;28;20569;-46
2023/09/25 06:35:43;;;;;;;4.65;2.40;;;;;;;11.89;100.00;102241.72;5002671;28;20193;-46
2023/09/25 06:38:08;;;;;;;5.53;2.20;;;;;;;11.94;100.00;102229.09;5002292;28;20179;-46
2023/09/25 06:40:34;;;;;;;3.08;2.20;;;;;;;12.05;100.00;102236.03;5001600;28;20499;-46
2023/09/25 06:42:59;;;;;;;1.90;1.80;;;;;;;12.12;100.00;102238.53;4999134;28;20315;-47
2023/09/25 06:45:25;;;;;;;5.60;2.20;;;;;;;12.20;100.00;102241.06;5001519;28;20176;-48
2023/09/25 06:47:50;;;;;;;4.22;2.00;;;;;;;12.27;100.00;102220.31;5004593;28;20172;-47
2023/09/25 06:50:16;;;;;;;2.85;2.28;;;;;;;12.32;100.00;102223.78;4998659;28;20265;-46
2023/09/25 06:52:42;;;;;;;10.18;2.40;;;;;;;12.27;100.00;102218.50;4998343;28;20181;-45
2023/09/25 06:55:09;;;;;;;8.10;4.90;;;;;;;12.34;100.00;102227.31;5002554;28;20647;-46
2023/09/25 06:57:34;;;;;;;4.95;2.58;;;;;;;12.40;99.84;102226.28;5006393;28;20184;-45
2023/09/25 07:00:00;;;;;;;2.33;2.10;;;;;;;12.53;99.71;102206.28;5001671;28;20195;-46
2023/09/25 07:02:26;;;;;;;5.47;2.38;;;;;;;12.70;99.36;102220.19;4995907;28;20704;-46
2023/09/25 07:04:51;;;;;;;2.40;2.20;;;;;;;12.84;98.32;102227.03;5001700;28;20198;-47
2023/09/25 07:07:17;;;;;;;3.28;2.15;;;;;;;13.05;97.40;102220.19;5003461;28;20189;-47
2023/09/25 07:09:42;;;;;;;4.78;2.03;;;;;;;13.09;96.43;102220.06;5003543;28;20188;-46
2023/09/25 07:12:08;;;;;;;1.90;1.80;;;;;;;13.18;95.54;102227.91;4997212;28;20201;-45
2023/09/25 07:14:34;;;;;;;2.58;1.80;;;;;;;13.36;95.16;102231.06;5000696;28;20182;-46
2023/09/25 07:16:59;;;;;;;3.95;2.05;;;;;;;13.35;94.52;102222.09;5001469;28;20645;-46
2023/09/25 07:19:25;;;;;;;5.10;2.10;;;;;;;13.43;93.76;102229.09;5002163;28;20763;-46
2023/09/25 07:21:50;;;;;;;5.45;2.08;;;;;;;13.38;93.39;102232.78;4998311;23;20620;-43
2023/09/25 07:24:16;;;;;;;2.35;2.00;;;;;;;13.44;92.66;102223.63;4959062;28;20264;-41
2023/09/25 07:26:43;;;;;;;2.28;1.70;;;;;;;13.60;92.62;102245.66;4959369;28;20553;-41
2023/09/25 07:29:10;;;;;;;2.50;1.88;;;;;;;13.65;92.15;102241.00;4957379;28;20182;-38
2023/09/25 07:31:35;;;;;;;5.35;1.85;;;;;;;13.76;91.72;102249.66;4961266;28;20221;-42
2023/09/25 07:34:01;;;;;;;2.05;1.60;;;;;;;13.86;91.26;102247.56;4961982;28;20285;-40
2023/09/25 07:36:26;;;;;;;2.17;1.85;;;;;;;14.20;90.75;102254.66;4957823;28;20743;-40
2023/09/25 07:38:52;;;;;;;2.83;1.80;;;;;;;14.24;90.07;102250.94;4962972;28;20763;-42
2023/09/25 07:41:18;;;;;;;2.30;1.40;;;;;;;14.38;89.52;102256.78;4958948;28;20196;-40
2023/09/25 07:43:44;;;;;;;1.35;1.33;;;;;;;14.76;88.94;102260.13;4960509;28;20333;-41
2023/09/25 07:46:09;;;;;;;2.50;1.30;;;;;;;14.71;88.07;102258.47;4952455;28;20302;-44
2023/09/25 07:48:37;;;;;;;2.55;1.70;;;;;;;14.84;87.14;102251.75;4957625;28;20238;-41
2023/09/25 07:51:05;;;;;;;3.75;1.67;;;;;;;14.81;86.28;102246.47;4956760;28;20657;-43
2023/09/25 07:53:31;;;;;;;1.40;1.20;;;;;;;14.82;85.80;102243.72;4958622;28;20202;-40
2023/09/25 07:55:57;;;;;;;1.63;1.27;;;;;;;14.89;85.92;102247.09;4954784;28;20183;-42
2023/09/25 07:58:22;;;;;;;3.03;1.45;;;;;;;14.81;85.57;102244.66;4956944;28;20206;-43
2023/09/25 08:00:48;;;;;;;2.55;1.30;;;;;;;14.82;85.05;102243.72;4961125;28;20530;-43
2023/09/25 08:03:16;;;;;;;1.25;1.20;;;;;;;14.98;84.58;102251.31;4956875;28;20291;-40
2023/09/25 08:05:42;;;;;;;1.63;1.33;;;;;;;14.98;84.24;102243.22;4955967;28;20644;-42
2023/09/25 08:08:11;;;;;;;3.53;1.42;;;;;;;15.06;84.06;102249.19;4963634;28;20213;-41
2023/09/25 08:10:37;;;;;;;1.50;1.30;;;;;;;14.87;83.42;102254.38;4957838;28;20197;-42
2023/09/25 08:13:03;;;;;;;1.10;1.00;;;;;;;14.90;83.45;102243.44;4957652;28;20300;-41
2023/09/25 08:15:29;;;;;;;1.77;1.25;;;;;;;15.02;83.46;102247.53;4957846;28;20193;-41
2023/09/25 08:17:55;;;;;;;2.33;1.73;;;;;;;15.02;83.50;102236.75;4959378;28;20187;-43
2023/09/25 08:20:20;;;;;;;2.00;1.40;;;;;;;14.98;83.29;102235.13;4953207;28;20189;-41
2023/09/25 08:22:48;;;;;;;4.68;1.45;;;;;;;15.12;82.89;102243.59;4958365;28;20292;-42
2023/09/25 08:25:14;;;;;;;1.92;1.25;;;;;;;14.98;82.86;102252.19;4957330;28;20193;-41
2023/09/25 08:27:40;;;;;;;5.05;1.48;;;;;;;15.13;82.58;102230.97;4956297;28;20191;-42
2023/09/25 08:30:07;;;;;;;2.22;1.50;;;;;;;15.08;82.52;102239.25;4948842;28;20611;-41
2023/09/25 08:32:32;;;;;;;3.70;1.40;;;;;;;14.92;82.25;102243.41;4954214;28;20216;-42
2023/09/25 08:34:59;;;;;;;2.50;1.42;;;;;;;15.06;82.59;102248.31;4961073;28;20194;-41
2023/09/25 08:37:27;;;;;;;2.95;1.77;;;;;;;15.07;82.15;102232.09;4958517;28;20645;-40
2023/09/25 08:39:53;;;;;;;2.15;1.40;;;;;;;15.12;82.44;102249.00;4952215;28;20181;-42
2023/09/25 08:42:24;;;;;;;1.60;1.20;;;;;;;15.41;81.98;102248.00;4956708;28;20214;-44
2023/09/25 08:44:51;;;;;;;3.97;1.23;;;;;;;15.48;81.70;102239.66;4955771;28;20225;-43
2023/09/25 08:47:19;;;;;;;2.08;1.65;;;;;;;15.51;81.55;102239.56;4954162;28;20178;-41
2023/09/25 08:49:48;;;;;;;1.10;1.10;;;;;;;15.55;81.47;102236.69;4951738;28;20224;-41
2023/09/25 08:52:13;;;;;;;2.00;1.20;;;;;;;15.80;80.60;102236.66;4958984;28;20591;-44
2023/09/25 08:54:39;;;;;;;1.60;1.17;;;;;;;15.63;80.66;102239.09;4957038;28;20175;-43
2023/09/25 08:57:05;;;;;;;2.28;1.30;;;;;;;15.74;80.38;102236.03;4956837;28;20269;-42
2023/09/25 08:59:31;;;;;;;2.50;1.27;;;;;;;15.89;79.92;102231.88;4960183;28;20222;-42
2023/09/25 09:01:56;;;;;;;3.17;1.27;;;;;;;16.16;79.80;102229.91;4953330;28;20216;-43
2023/09/25 09:04:23;;;;;;;1.40;1.30;;;;;;;16.30;79.03;102229.38;4948347;28;20210;-41
2023/09/25 09:06:49;;;;;;;2.58;1.30;;;;;;;16.33;78.66;102223.84;4956579;28;20202;-42
2023/09/25 09:09:15;;;;;;;1.77;1.30;;;;;;;16.39;78.19;102216.34;4955722;28;20216;-41
2023/09/25 09:11:51;;;;;;;1.83;1.20;;;;;;;16.64;78.12;102221.66;4956100;28;20238;-42
2023/09/25 09:14:39;;;;;;;4.00;1.23;;;;;;;16.71;77.75;102218.69;4957554;28;20639;-42
2023/09/25 09:17:05;;;;;;;2.25;1.23;;;;;;;16.74;77.34;102222.13;4957322;28;20231;-40
2023/09/25 09:19:47;;;;;;;1.27;1.10;;;;;;;16.71;76.41;102210.56;4956424;28;20190;-41
2023/09/25 09:22:16;;;;;;;1.25;1.23;;;;;;;16.91;76.19;102205.22;4952846;28;20569;-40
2023/09/25 09:24:43;;;;;;;1.75;1.30;;;;;;;16.92;76.16;102211.50;4951818;28;20202;-41
2023/09/25 09:27:09;;;;;;;1.77;1.20;;;;;;;16.75;76.18;102202.25;4953804;28;20194;-42
2023/09/25 09:29:39;;;;;;;1.75;1.25;;;;;;;16.70;75.93;102196.13;4957206;28;20195;-43
2023/09/25 09:32:06;;;;;;;1.25;1.10;;;;;;;16.79;76.33;102195.78;4953325;28;20786;-43
2023/09/25 09:34:32;;;;;;;1.95;1.15;;;;;;;16.86;76.26;102194.59;4955156;28;20198;-43
2023/09/25 09:36:58;;;;;;;1.33;1.10;;;;;;;16.91;76.27;102188.09;4958767;28;20183;-44
2023/09/25 09:39:25;;;;;;;3.35;1.20;;;;;;;17.06;76.40;102187.44;4957428;28;20197;-44
2023/09/25 09:41:52;;;;;;;5.05;1.33;;;;;;;17.02;75.45;102180.41;4961168;28;20198;-43
2023/09/25 09:44:19;;;;;;;2.58;1.05;;;;;;;17.06;75.40;102182.03;4958794;28;20583;-42
2023/09/25 09:46:46;;;;;;;3.40;1.17;;;;;;;17.29;75.38;102178.28;4957989;28;20602;-44
2023/09/25 09:49:15;;;;;;;2.35;1.20;;;;;;;17.55;75.70;102176.22;4961760;28;20202;-42
2023/09/25 09:51:44;;;;;;;1.30;1.20;;;;;;;17.41;74.86;102175.03;4954306;28;20201;-44
2023/09/25 09:54:12;;;;;;;4.93;1.25;;;;;;;17.73;74.42;102178.06;4957847;28;20555;-43
2023/09/25 09:56:39;;;;;;;2.78;1.00;;;;;;;17.63;73.56;102164.06;4956092;28;20253;-42
2023/09/25 09:59:06;;;;;;;1.83;1.15;;;;;;;17.67;73.10;102160.28;4962619;28;20191;-43
2023/09/25 10:01:35;;;;;;;2.25;1.00;;;;;;;17.81;72.74;102151.47;4955855;28;20623;-41
2023/09/25 10:04:07;;;;;;;1.52;0.90;;;;;;;17.96;72.50;102157.16;4960114;28;20305;-41
2023/09/25 10:06:42;;;;;;;2.58;1.20;;;;;;;17.99;72.18;102157.00;4954266;28;20185;-41
2023/09/25 10:09:10;;;;;;;3.00;1.10;;;;;;;18.03;71.33;102151.34;4951136;28;20191;-42
2023/09/25 10:11:36;;;;;;;3.78;1.17;;;;;;;18.02;71.36;102143.31;4958537;28;20209;-43
2023/09/25 10:14:03;;;;;;;1.98;1.10;;;;;;;18.07;71.33;102146.69;4956495;28;20552;-43
2023/09/25 10:16:32;;;;;;;1.55;1.15;;;;;;;18.40;70.56;102130.56;4951793;28;20190;-41
2023/09/25 10:18:58;;;;;;;1.02;1.00;;;;;;;18.62;70.37;102124.03;4957776;28;20636;-41
2023/09/25 10:21:23;;;;;;;1.90;1.40;;;;;;;18.60;69.31;102105.09;4955006;28;20229;-41
2023/09/25 10:23:54;;;;;;;0.90;0.90;;;;;;;18.77;69.44;102111.50;4958344;28;20537;-43
2023/09/25 10:26:23;;;;;;;2.63;1.10;;;;;;;18.90;68.85;102108.09;4954765;28;20587;-43
2023/09/25 10:29:14;;;;;;;1.33;1.00;;;;;;;18.85;67.86;102091.16;4963561;28;20269;-43
2023/09/25 10:31:47;;;;;;;1.20;1.05;;;;;;;19.19;66.97;102094.78;4961224;28;20205;-42
2023/09/25 10:34:13;;;;;;;2.97;0.90;;;;;;;19.06;66.52;102086.41;4962854;28;20190;-46
2023/09/25 10:36:41;;;;;;;1.10;0.93;;;;;;;19.00;65.94;102075.91;4961992;28;20526;-46
2023/09/25 10:39:14;;;;;;;1.33;1.00;;;;;;;19.05;65.91;102075.66;4956977;28;20229;-44
2023/09/25 10:41:42;;;;;;;1.33;1.02;;;;;;;19.27;65.57;102064.50;4960234;28;20217;-45
2023/09/25 10:44:09;;;;;;;2.42;0.95;;;;;;;18.88;64.72;102065.69;4951907;28;20232;-45
2023/09/25 10:46:35;;;;;;;1.48;0.98;;;;;;;18.71;64.89;102066.53;4958275;28;20183;-45
2023/09/25 10:49:01;;;;;;;1.58;1.05;;;;;;;18.80;64.56;102063.38;4957300;28;20200;-45
2023/09/25 10:51:26;;;;;;;1.85;1.00;;;;;;;18.72;64.84;102057.44;4954274;28;20352;-44
2023/09/25 10:53:53;;;;;;;1.30;1.05;;;;;;;18.75;64.94;102060.00;4958289;28;20293;-46
2023/09/25 10:56:19;;;;;;;1.60;1.17;;;;;;;18.89;64.03;102045.69;4955744;28;20664;-44
2023/09/25 10:58:50;;;;;;;1.75;1.10;;;;;;;18.94;65.27;102052.66;4957268;28;20186;-46
2023/09/25 11:01:22;;;;;;;1.45;1.08;;;;;;;18.80;63.87;102035.34;4959409;28;20197;-47
2023/09/25 11:03:47;;;;;;;1.70;1.10;;;;;;;19.00;63.92;102039.69;4957728;28;20195;-45
2023/09/25 11:06:14;;;;;;;2.10;1.15;;;;;;;19.21;63.26;102034.94;4960375;28;20261;-46
2023/09/25 11:08:40;;;;;;;1.75;1.20;;;;;;;19.15;63.24;102033.41;4960810;28;20202;-44
2023/09/25 11:11:06;;;;;;;1.80;1.10;;;;;;;19.09;63.07;102026.50;4972934;28;20214;-43
2023/09/25 11:13:31;;;;;;;1.50;1.00;;;;;;;19.41;62.85;102022.94;4960607;28;20269;-45
2023/09/25 11:16:00;;;;;;;1.63;1.10;;;;;;;19.29;63.23;102036.25;4958270;28;20257;-45